createdAt,value
2022-12-24T00:01:00.693Z,4.00
2022-12-24T00:02:03.854Z,4.00
2022-12-24T00:03:06.993Z,4.00
2022-12-24T00:04:10.125Z,4.00
2022-12-24T00:05:13.093Z,4.00
2022-12-24T00:06:16.165Z,4.00
2022-12-24T00:07:19.250Z,4.33
2022-12-24T00:08:22.336Z,4.17
2022-12-24T00:09:25.409Z,3.57
2022-12-24T00:10:28.390Z,3.57
2022-12-24T00:11:31.569Z,4.00
2022-12-24T00:12:34.643Z,4.29
2022-12-24T00:13:37.721Z,4.43
2022-12-24T00:14:40.812Z,4.00
2022-12-24T00:15:43.849Z,3.86
2022-12-24T00:16:46.929Z,4.00
2022-12-24T00:17:50.162Z,4.00
2022-12-24T00:18:53.130Z,3.71
2022-12-24T00:19:56.112Z,3.29
2022-12-24T00:20:59.279Z,3.29
2022-12-24T00:22:02.461Z,3.71
2022-12-24T00:23:05.539Z,3.57
2022-12-24T00:24:08.718Z,4.71
2022-12-24T00:25:11.908Z,5.00
2022-12-24T00:26:15.194Z,5.00
2022-12-24T00:27:18.372Z,4.71
2022-12-24T00:28:21.475Z,4.67
2022-12-24T00:29:27.735Z,5.50
2022-12-24T00:30:30.904Z,4.62
2022-12-24T00:31:34.078Z,3.43
2022-12-24T00:32:37.256Z,4.43
2022-12-24T00:33:40.950Z,4.57
2022-12-24T00:34:44.122Z,4.57
2022-12-24T00:35:48.124Z,5.00
2022-12-24T00:36:51.931Z,4.75
2022-12-24T00:37:55.211Z,5.00
2022-12-24T00:38:58.593Z,4.57
2022-12-24T00:40:01.959Z,4.43
2022-12-24T00:41:05.380Z,5.00
2022-12-24T00:42:08.756Z,5.00
2022-12-24T00:43:12.057Z,4.00
2022-12-24T00:44:15.439Z,4.43
2022-12-24T00:45:18.611Z,4.14
2022-12-24T00:46:21.842Z,4.43
2022-12-24T00:47:24.949Z,4.57
2022-12-24T00:48:28.171Z,4.00
2022-12-24T00:49:31.230Z,4.50
2022-12-24T00:50:34.312Z,4.33
2022-12-24T00:51:37.527Z,4.17
2022-12-24T00:52:40.687Z,4.00
2022-12-24T00:53:43.859Z,4.00
2022-12-24T00:54:47.043Z,4.00
2022-12-24T00:55:50.125Z,5.00
2022-12-24T00:56:53.124Z,5.00
2022-12-24T00:57:56.072Z,5.00
2022-12-24T00:58:59.045Z,5.00
2022-12-24T01:00:02.325Z,5.00
2022-12-24T01:01:05.658Z,4.57
2022-12-24T01:02:09.183Z,4.43
2022-12-24T01:03:12.496Z,5.00
2022-12-24T01:04:16.090Z,4.83
2022-12-24T01:05:19.240Z,4.43
2022-12-24T01:06:22.417Z,5.00
2022-12-24T01:07:25.730Z,4.57
2022-12-24T01:08:28.891Z,4.43
2022-12-24T01:09:32.194Z,5.00
2022-12-24T01:10:35.462Z,4.86
2022-12-24T01:11:38.660Z,4.43
2022-12-24T01:12:42.072Z,5.00
2022-12-24T01:13:45.352Z,5.00
2022-12-24T01:14:48.593Z,4.14
2022-12-24T01:15:51.874Z,3.67
2022-12-24T01:16:55.198Z,4.57
2022-12-24T01:17:58.489Z,4.71
2022-12-24T01:19:01.753Z,4.57
2022-12-24T01:20:05.548Z,5.29
2022-12-24T01:21:08.737Z,5.00
2022-12-24T01:22:12.153Z,5.43
2022-12-24T01:23:15.311Z,5.83
2022-12-24T01:24:18.400Z,5.71
2022-12-24T01:25:21.763Z,5.86
2022-12-24T01:26:25.161Z,6.00
2022-12-24T01:27:28.438Z,5.57
2022-12-24T01:28:31.723Z,4.86
2022-12-24T01:29:35.213Z,4.57
2022-12-24T01:30:38.369Z,5.00
2022-12-24T01:31:41.645Z,4.57
2022-12-24T01:32:45.065Z,5.43
2022-12-24T01:33:48.439Z,5.57
2022-12-24T01:34:51.630Z,5.29
2022-12-24T01:35:54.922Z,5.14
2022-12-24T01:37:03.870Z,4.57
2022-12-24T01:38:07.216Z,5.00
2022-12-24T01:39:10.513Z,5.00
2022-12-24T01:40:13.656Z,5.00
2022-12-24T01:41:17.067Z,5.00
2022-12-24T01:42:20.457Z,5.00
2022-12-24T01:43:23.752Z,4.86
2022-12-24T01:44:31.593Z,5.50
2022-12-24T01:45:30.867Z,5.25
2022-12-24T01:46:34.114Z,5.00
2022-12-24T01:47:37.215Z,5.57
2022-12-24T01:48:40.164Z,6.00
2022-12-24T01:49:43.462Z,5.67
2022-12-24T01:50:46.629Z,5.43
2022-12-24T01:51:49.816Z,5.57
2022-12-24T01:52:52.747Z,4.57
2022-12-24T01:53:55.968Z,5.29
2022-12-24T01:54:59.154Z,4.57
2022-12-24T01:56:02.151Z,4.43
2022-12-24T01:57:05.310Z,5.00
2022-12-24T01:58:08.572Z,5.00
2022-12-24T01:59:11.483Z,4.57
2022-12-24T02:00:14.411Z,4.86
2022-12-24T02:01:17.571Z,5.00
2022-12-24T02:02:20.852Z,5.00
2022-12-24T02:03:24.108Z,5.00
2022-12-24T02:04:27.478Z,5.00
2022-12-24T02:05:30.454Z,5.00
2022-12-24T02:06:33.637Z,5.00
2022-12-24T02:07:36.624Z,5.00
2022-12-24T02:08:39.618Z,4.57
2022-12-24T02:09:42.674Z,5.00
2022-12-24T02:10:46.096Z,4.57
2022-12-24T02:11:49.043Z,4.86
2022-12-24T02:12:52.430Z,4.86
2022-12-24T02:13:55.517Z,4.57
2022-12-24T02:14:58.583Z,4.50
2022-12-24T02:16:01.755Z,4.50
2022-12-24T02:17:04.841Z,4.33
2022-12-24T02:18:08.126Z,5.00
2022-12-24T02:19:11.309Z,5.43
2022-12-24T02:20:14.458Z,5.57
2022-12-24T02:21:17.464Z,5.00
2022-12-24T02:22:20.515Z,5.00
2022-12-24T02:24:39.715Z,4.62
2022-12-24T02:25:42.999Z,5.43
2022-12-24T02:26:46.068Z,5.57
2022-12-24T02:27:49.473Z,4.71
2022-12-24T02:28:52.657Z,5.00
2022-12-24T02:29:55.721Z,5.14
2022-12-24T02:30:58.755Z,4.86
2022-12-24T02:32:01.986Z,5.00
2022-12-24T02:33:05.273Z,4.57
2022-12-24T02:34:08.557Z,4.57
2022-12-24T02:35:11.611Z,4.33
2022-12-24T02:36:14.713Z,5.00
2022-12-24T02:37:17.804Z,4.50
2022-12-24T02:38:20.875Z,5.00
2022-12-24T02:39:23.953Z,4.67
2022-12-24T02:40:27.031Z,4.43
2022-12-24T02:41:30.209Z,5.00
2022-12-24T02:42:33.188Z,5.67
2022-12-24T02:43:36.267Z,5.57
2022-12-24T02:44:41.222Z,5.43
2022-12-24T02:45:44.273Z,5.50
2022-12-24T02:46:47.400Z,4.67
2022-12-24T02:47:50.324Z,5.43
2022-12-24T02:48:53.516Z,5.86
2022-12-24T02:49:56.687Z,5.29
2022-12-24T02:50:59.675Z,5.00
2022-12-24T02:52:02.751Z,5.00
2022-12-24T02:53:05.697Z,4.71
2022-12-24T02:54:08.804Z,4.67
2022-12-24T02:55:11.907Z,4.00
2022-12-24T02:56:14.895Z,4.33
2022-12-24T02:57:17.941Z,4.83
2022-12-24T02:58:21.124Z,5.00
2022-12-24T02:59:24.168Z,4.50
2022-12-24T03:00:27.215Z,3.83
2022-12-24T03:01:30.537Z,4.33
2022-12-24T03:02:33.753Z,5.43
2022-12-24T03:03:36.811Z,5.67
2022-12-24T03:04:40.954Z,4.50
2022-12-24T03:05:44.210Z,4.14
2022-12-24T03:06:47.398Z,4.86
2022-12-24T03:07:50.477Z,4.57
2022-12-24T03:08:53.445Z,4.00
2022-12-24T03:09:56.530Z,4.71
2022-12-24T03:10:59.617Z,5.00
2022-12-24T03:12:02.686Z,4.00
2022-12-24T03:13:05.665Z,4.33
2022-12-24T03:14:08.767Z,4.67
2022-12-24T03:15:11.770Z,4.00
2022-12-24T03:16:14.846Z,4.14
2022-12-24T03:17:17.807Z,4.43
2022-12-24T03:18:20.975Z,3.43
2022-12-24T03:19:23.865Z,4.14
2022-12-24T03:20:27.118Z,4.57
2022-12-24T03:21:30.198Z,3.71
2022-12-24T03:22:33.377Z,3.57
2022-12-24T03:23:36.466Z,4.00
2022-12-24T03:24:39.435Z,4.14
2022-12-24T03:25:42.388Z,4.00
2022-12-24T03:26:45.497Z,4.00
2022-12-24T03:27:48.711Z,3.67
2022-12-24T03:28:51.763Z,3.67
2022-12-24T03:29:54.728Z,3.67
2022-12-24T03:30:57.948Z,4.14
2022-12-24T03:32:01.045Z,3.57
2022-12-24T03:33:04.171Z,3.00
2022-12-24T03:34:07.686Z,3.29
2022-12-24T03:35:10.638Z,3.57
2022-12-24T03:36:13.755Z,3.00
2022-12-24T03:37:16.900Z,3.33
2022-12-24T03:38:19.984Z,3.86
2022-12-24T03:39:23.062Z,3.33
2022-12-24T03:40:26.242Z,3.33
2022-12-24T03:41:29.320Z,4.00
2022-12-24T03:42:32.502Z,2.83
2022-12-24T03:43:35.691Z,2.83
2022-12-24T03:44:38.698Z,2.83
2022-12-24T03:45:41.744Z,3.33
2022-12-24T03:46:44.931Z,2.83
2022-12-24T03:47:48.619Z,2.33
2022-12-24T03:48:51.703Z,2.86
2022-12-24T03:49:54.810Z,4.00
2022-12-24T03:50:57.752Z,4.00
2022-12-24T03:52:06.976Z,4.00
2022-12-24T03:53:10.057Z,4.00
2022-12-24T03:54:13.146Z,3.43
2022-12-24T03:55:16.102Z,2.57
2022-12-24T03:56:19.265Z,2.50
2022-12-24T03:57:22.375Z,3.00
2022-12-24T03:58:25.250Z,3.00
2022-12-24T03:59:28.431Z,3.17
2022-12-24T04:00:31.524Z,3.67
2022-12-24T04:01:34.742Z,3.00
2022-12-24T04:02:37.990Z,2.67
2022-12-24T04:03:41.060Z,2.43
2022-12-24T04:04:44.244Z,3.57
2022-12-24T04:05:47.351Z,2.43
2022-12-24T04:06:50.392Z,3.00
2022-12-24T04:07:53.582Z,2.50
2022-12-24T04:08:56.472Z,2.00
2022-12-24T04:09:59.536Z,2.83
2022-12-24T04:11:07.745Z,3.00
2022-12-24T04:12:07.023Z,3.00
2022-12-24T04:13:10.216Z,2.43
2022-12-24T04:14:13.488Z,2.57
2022-12-24T04:15:16.977Z,3.00
2022-12-24T04:16:20.112Z,2.43
2022-12-24T04:17:23.440Z,2.00
2022-12-24T04:18:26.482Z,1.57
2022-12-24T04:19:29.532Z,1.33
2022-12-24T04:20:32.583Z,1.33
2022-12-24T04:21:35.968Z,2.33
2022-12-24T04:22:39.357Z,2.57
2022-12-24T04:23:42.532Z,2.00
2022-12-24T04:24:45.932Z,2.14
2022-12-24T04:25:49.321Z,2.43
2022-12-24T04:26:52.903Z,2.43
2022-12-24T04:27:56.187Z,2.14
2022-12-24T04:28:59.570Z,2.00
2022-12-24T04:30:02.786Z,2.29
2022-12-24T04:31:05.937Z,2.43
2022-12-24T04:32:09.013Z,2.43
2022-12-24T04:33:12.310Z,3.00
2022-12-24T04:34:15.593Z,2.14
2022-12-24T04:35:18.873Z,1.33
2022-12-24T04:36:22.254Z,1.86
2022-12-24T04:37:25.646Z,2.71
2022-12-24T04:38:29.352Z,1.71
2022-12-24T04:39:32.317Z,2.00
2022-12-24T04:40:35.488Z,2.71
2022-12-24T04:41:38.886Z,2.43
2022-12-24T04:42:42.126Z,2.29
2022-12-24T04:43:45.345Z,2.00
2022-12-24T04:44:48.735Z,2.43
2022-12-24T04:45:51.929Z,2.00
2022-12-24T04:46:55.338Z,2.00
2022-12-24T04:47:58.580Z,2.00
2022-12-24T04:49:01.804Z,1.57
2022-12-24T04:50:05.060Z,2.29
2022-12-24T04:51:08.432Z,2.29
2022-12-24T04:52:11.826Z,2.00
2022-12-24T04:53:15.105Z,1.67
2022-12-24T04:54:18.385Z,2.00
2022-12-24T04:55:21.577Z,2.00
2022-12-24T04:56:24.969Z,2.00
2022-12-24T04:57:28.243Z,1.57
2022-12-24T04:58:31.640Z,2.00
2022-12-24T04:59:37.760Z,2.00
2022-12-24T05:00:40.865Z,2.00
2022-12-24T05:01:44.212Z,2.00
2022-12-24T05:02:47.458Z,1.71
2022-12-24T05:03:50.609Z,2.00
2022-12-24T05:04:53.802Z,2.43
2022-12-24T05:06:01.396Z,1.29
2022-12-24T05:07:01.607Z,1.87
2022-12-24T05:08:05.177Z,1.57
2022-12-24T05:09:08.162Z,2.00
2022-12-24T05:10:11.340Z,2.00
2022-12-24T05:11:14.431Z,2.00
2022-12-24T05:12:17.401Z,1.50
2022-12-24T05:13:20.599Z,2.00
2022-12-24T05:14:23.561Z,2.00
2022-12-24T05:15:26.745Z,1.50
2022-12-24T05:16:29.850Z,2.00
2022-12-24T05:17:32.901Z,2.50
2022-12-24T05:18:35.873Z,2.00
2022-12-24T05:19:38.957Z,2.00
2022-12-24T05:20:42.039Z,2.43
2022-12-24T05:21:45.227Z,2.71
2022-12-24T05:22:48.294Z,2.29
2022-12-24T05:23:51.475Z,3.00
2022-12-24T05:24:54.555Z,2.00
2022-12-24T05:25:57.745Z,1.29
2022-12-24T05:27:01.225Z,1.71
2022-12-24T05:28:04.609Z,2.43
2022-12-24T05:29:08.019Z,2.67
2022-12-24T05:30:11.391Z,2.43
2022-12-24T05:31:14.715Z,2.43
2022-12-24T05:32:17.963Z,1.50
2022-12-24T05:33:21.134Z,2.33
2022-12-24T05:34:24.216Z,2.43
2022-12-24T05:35:27.252Z,2.00
2022-12-24T05:36:30.275Z,2.00
2022-12-24T05:37:33.247Z,2.50
2022-12-24T05:38:36.329Z,2.00
2022-12-24T05:39:39.614Z,2.29
2022-12-24T05:40:42.596Z,2.43
2022-12-24T05:41:45.696Z,1.71
2022-12-24T05:42:48.650Z,2.00
2022-12-24T05:43:51.705Z,1.71
2022-12-24T05:44:54.701Z,2.00
2022-12-24T05:45:57.809Z,2.00
2022-12-24T05:47:00.768Z,1.83
2022-12-24T05:48:03.739Z,1.43
2022-12-24T05:49:06.959Z,2.00
2022-12-24T05:50:09.998Z,1.43
2022-12-24T05:51:13.184Z,1.86
2022-12-24T05:52:16.259Z,2.00
2022-12-24T05:53:19.240Z,1.71
2022-12-24T05:54:22.367Z,0.86
2022-12-24T05:55:25.395Z,1.43
2022-12-24T05:56:28.576Z,2.00
2022-12-24T05:57:31.725Z,1.14
2022-12-24T05:58:34.910Z,1.43
2022-12-24T05:59:38.028Z,1.43
2022-12-24T06:00:41.091Z,1.43
2022-12-24T06:01:44.246Z,1.67
2022-12-24T06:02:47.485Z,0.71
2022-12-24T06:03:50.345Z,1.00
2022-12-24T06:04:53.488Z,2.00
2022-12-24T06:05:56.474Z,1.33
2022-12-24T06:07:06.234Z,1.00
2022-12-24T06:08:09.621Z,1.00
2022-12-24T06:09:12.800Z,0.57
2022-12-24T06:10:15.807Z,0.67
2022-12-24T06:11:18.753Z,1.00
2022-12-24T06:12:21.832Z,1.00
2022-12-24T06:13:24.914Z,1.43
2022-12-24T06:14:27.899Z,1.29
2022-12-24T06:15:31.109Z,1.00
2022-12-24T06:16:34.074Z,1.00
2022-12-24T06:17:37.209Z,1.00
2022-12-24T06:18:40.216Z,1.00
2022-12-24T06:19:43.185Z,0.67
2022-12-24T06:20:46.125Z,1.00
2022-12-24T06:21:49.254Z,1.00
2022-12-24T06:22:52.320Z,0.43
2022-12-24T06:23:55.505Z,0.57
2022-12-24T06:24:58.799Z,1.00
2022-12-24T06:26:02.389Z,0.86
2022-12-24T06:27:05.559Z,0.00
2022-12-24T06:28:08.637Z,0.00
2022-12-24T06:29:11.825Z,0.43
2022-12-24T06:30:15.035Z,0.86
2022-12-24T06:31:18.130Z,1.00
2022-12-24T06:32:21.167Z,0.71
2022-12-24T06:33:24.253Z,0.29
2022-12-24T06:34:27.303Z,0.57
2022-12-24T06:35:30.386Z,0.00
2022-12-24T06:36:33.480Z,0.33
2022-12-24T06:37:36.557Z,0.33
2022-12-24T06:38:39.757Z,0.33
2022-12-24T06:39:42.930Z,0.67
2022-12-24T06:40:46.008Z,0.00
2022-12-24T06:41:49.086Z,0.00
2022-12-24T06:42:52.058Z,0.00
2022-12-24T06:43:55.256Z,0.00
2022-12-24T06:45:02.137Z,0.00
2022-12-24T06:46:02.663Z,0.00
2022-12-24T06:47:05.809Z,0.00
2022-12-24T06:48:08.698Z,0.00
2022-12-24T06:49:11.791Z,0.00
2022-12-24T06:50:14.778Z,0.00
2022-12-24T06:51:17.738Z,0.33
2022-12-24T06:52:20.816Z,0.43
2022-12-24T06:53:25.125Z,0.00
2022-12-24T06:54:28.593Z,1.00
2022-12-24T06:55:31.909Z,1.00
2022-12-24T06:56:35.066Z,0.57
2022-12-24T06:57:38.554Z,0.29
2022-12-24T06:58:42.087Z,1.00
2022-12-24T06:59:45.426Z,0.57
2022-12-24T07:00:49.938Z,0.57
2022-12-24T07:01:53.172Z,0.62
2022-12-24T07:02:56.443Z,1.00
2022-12-24T07:03:59.932Z,1.00
2022-12-24T07:05:02.973Z,1.00
2022-12-24T07:06:06.055Z,1.43
2022-12-24T07:07:09.146Z,1.67
2022-12-24T07:08:12.128Z,1.00
2022-12-24T07:09:15.205Z,1.00
2022-12-24T07:10:18.284Z,1.00
2022-12-24T07:11:21.370Z,0.33
2022-12-24T07:12:24.439Z,1.00
2022-12-24T07:13:27.513Z,1.00
2022-12-24T07:14:33.994Z,2.00
2022-12-24T07:15:36.959Z,1.00
2022-12-24T07:16:40.182Z,1.00
2022-12-24T07:17:43.277Z,2.00
2022-12-24T07:18:46.281Z,2.43
2022-12-24T07:19:49.420Z,2.43
2022-12-24T07:20:52.545Z,2.00
2022-12-24T07:21:55.952Z,1.57
2022-12-24T07:22:59.112Z,1.00
2022-12-24T07:24:02.409Z,2.43
2022-12-24T07:25:05.581Z,2.86
2022-12-24T07:26:08.760Z,3.00
2022-12-24T07:27:12.046Z,1.83
2022-12-24T07:28:15.342Z,2.67
2022-12-24T07:29:18.630Z,3.00
2022-12-24T07:30:22.008Z,3.00
2022-12-24T07:31:25.204Z,2.57
2022-12-24T07:32:28.596Z,2.14
2022-12-24T07:33:31.957Z,2.43
2022-12-24T07:34:35.239Z,2.43
2022-12-24T07:35:38.540Z,2.57
2022-12-24T07:36:41.812Z,1.71
2022-12-24T07:37:45.112Z,2.71
2022-12-24T07:38:48.380Z,2.00
2022-12-24T07:39:51.297Z,2.00
2022-12-24T07:40:54.415Z,2.00
2022-12-24T07:41:57.721Z,1.86
2022-12-24T07:43:00.804Z,2.00
2022-12-24T07:44:03.878Z,3.33
2022-12-24T07:45:06.931Z,3.00
2022-12-24T07:46:10.177Z,3.00
2022-12-24T07:47:13.602Z,2.57
2022-12-24T07:48:16.705Z,2.86
2022-12-24T07:49:19.964Z,2.43
2022-12-24T07:50:23.270Z,2.86
2022-12-24T07:51:26.560Z,4.00
2022-12-24T07:52:29.841Z,3.00
2022-12-24T07:53:33.033Z,3.00
2022-12-24T07:54:36.116Z,2.29
2022-12-24T07:55:39.273Z,2.57
2022-12-24T07:56:42.480Z,2.43
2022-12-24T07:57:45.663Z,2.57
2022-12-24T07:58:48.832Z,2.71
2022-12-24T07:59:52.113Z,2.43
2022-12-24T08:00:55.452Z,3.00
2022-12-24T08:01:58.718Z,3.43
2022-12-24T08:03:02.071Z,3.57
2022-12-24T08:04:05.527Z,2.29
2022-12-24T08:05:08.743Z,3.00
2022-12-24T08:06:12.001Z,3.00
2022-12-24T08:07:15.211Z,3.00
2022-12-24T08:08:18.298Z,2.57
2022-12-24T08:09:21.370Z,3.00
2022-12-24T08:10:24.452Z,3.57
2022-12-24T08:11:27.538Z,3.00
2022-12-24T08:12:30.509Z,3.00
2022-12-24T08:13:33.696Z,2.83
2022-12-24T08:14:36.810Z,2.33
2022-12-24T08:15:39.866Z,3.00
2022-12-24T08:16:42.909Z,2.67
2022-12-24T08:17:46.089Z,3.57
2022-12-24T08:18:49.323Z,2.43
2022-12-24T08:19:52.527Z,3.00
2022-12-24T08:20:55.653Z,2.29
2022-12-24T08:22:02.245Z,3.00
2022-12-24T08:23:05.516Z,2.50
2022-12-24T08:24:08.611Z,3.14
2022-12-24T08:25:11.978Z,2.43
2022-12-24T08:26:15.247Z,2.57
2022-12-24T08:27:18.528Z,3.43
2022-12-24T08:28:21.846Z,4.00
2022-12-24T08:29:25.018Z,3.67
2022-12-24T08:30:28.083Z,2.50
2022-12-24T08:31:31.525Z,3.00
2022-12-24T08:32:34.857Z,3.00
2022-12-24T08:33:38.269Z,3.00
2022-12-24T08:34:41.329Z,3.43
2022-12-24T08:35:44.504Z,3.14
2022-12-24T08:36:47.685Z,3.00
2022-12-24T08:37:50.947Z,3.00
2022-12-24T08:38:54.148Z,3.00
2022-12-24T08:39:57.340Z,3.00
2022-12-24T08:41:00.725Z,3.00
2022-12-24T08:42:04.126Z,2.71
2022-12-24T08:43:07.282Z,3.33
2022-12-24T08:44:10.570Z,3.29
2022-12-24T08:45:13.862Z,3.00
2022-12-24T08:46:17.191Z,2.71
2022-12-24T08:47:20.426Z,3.43
2022-12-24T08:48:23.716Z,3.57
2022-12-24T08:49:26.998Z,3.14
2022-12-24T08:50:30.306Z,4.00
2022-12-24T08:51:33.475Z,3.00
2022-12-24T08:52:36.846Z,3.57
2022-12-24T08:53:40.261Z,3.43
2022-12-24T08:54:43.518Z,3.57
2022-12-24T08:55:50.371Z,3.43
2022-12-24T08:56:51.323Z,4.00
2022-12-24T08:57:54.599Z,3.86
2022-12-24T08:58:57.768Z,4.00
2022-12-24T09:00:00.852Z,4.00
2022-12-24T09:01:04.208Z,3.57
2022-12-24T09:02:07.439Z,3.43
2022-12-24T09:03:10.841Z,3.14
2022-12-24T09:04:14.091Z,3.43
2022-12-24T09:05:17.390Z,4.00
2022-12-24T09:06:20.472Z,3.50
2022-12-24T09:07:23.551Z,3.50
2022-12-24T09:08:26.634Z,3.57
2022-12-24T09:09:34.154Z,3.43
2022-12-24T09:10:33.809Z,4.00
2022-12-24T09:11:36.886Z,3.57
2022-12-24T09:12:39.964Z,4.00
2022-12-24T09:13:42.948Z,3.67
2022-12-24T09:14:45.927Z,2.83
2022-12-24T09:15:49.480Z,3.43
2022-12-24T09:16:52.656Z,4.00
2022-12-24T09:17:56.241Z,3.29
2022-12-24T09:25:58.264Z,4.00
2022-12-24T09:27:01.574Z,4.29
2022-12-24T09:28:04.961Z,4.43
2022-12-24T09:29:08.147Z,5.43
2022-12-24T09:30:11.425Z,4.57
2022-12-24T09:31:14.760Z,4.29
2022-12-24T09:32:18.156Z,4.57
2022-12-24T09:33:21.391Z,3.71
2022-12-24T09:34:30.153Z,4.00
2022-12-24T09:35:29.279Z,5.00
2022-12-24T09:36:32.664Z,4.57
2022-12-24T09:37:35.962Z,4.00
2022-12-24T09:38:39.330Z,4.43
2022-12-24T09:39:42.521Z,5.14
2022-12-24T09:40:45.911Z,4.86
2022-12-24T09:41:48.993Z,4.57
2022-12-24T09:42:52.158Z,4.00
2022-12-24T09:43:55.459Z,4.00
2022-12-24T09:44:58.757Z,4.00
2022-12-24T09:46:02.465Z,5.00
2022-12-24T09:47:10.033Z,4.62
2022-12-24T09:48:10.731Z,5.00
2022-12-24T09:49:14.150Z,4.71
2022-12-24T09:50:18.323Z,4.57
2022-12-24T09:51:22.009Z,5.00
2022-12-24T09:52:25.108Z,4.71
2022-12-24T09:53:28.092Z,5.00
2022-12-24T09:54:31.269Z,4.00
2022-12-24T09:55:34.337Z,4.14
2022-12-24T09:56:37.423Z,5.00
2022-12-24T09:57:40.808Z,4.57
2022-12-24T09:58:43.903Z,4.43
2022-12-24T09:59:46.976Z,5.00
2022-12-24T10:00:50.508Z,5.00
2022-12-24T10:01:53.641Z,5.43
2022-12-24T10:02:56.978Z,5.57
2022-12-24T10:04:00.127Z,5.57
2022-12-24T10:05:03.360Z,5.57
2022-12-24T10:06:07.178Z,4.43
2022-12-24T10:07:21.638Z,5.00
2022-12-24T10:08:24.815Z,4.62
2022-12-24T10:09:27.890Z,5.00
2022-12-24T10:10:31.058Z,4.50
2022-12-24T10:11:34.225Z,4.57
2022-12-24T10:12:37.233Z,4.57
2022-12-24T10:13:40.579Z,4.86
2022-12-24T10:14:43.802Z,4.57
2022-12-24T10:15:47.048Z,5.00
2022-12-24T10:16:50.271Z,5.00
2022-12-24T10:17:53.569Z,5.00
2022-12-24T10:18:57.039Z,5.00
2022-12-24T10:20:00.298Z,5.29
2022-12-24T10:21:03.503Z,5.43
2022-12-24T10:22:06.911Z,5.86
2022-12-24T10:23:10.073Z,4.86
2022-12-24T10:24:13.470Z,5.43
2022-12-24T10:25:16.756Z,5.71
2022-12-24T10:26:19.860Z,6.00
2022-12-24T10:27:22.906Z,5.67
2022-12-24T10:28:25.954Z,5.71
2022-12-24T10:29:29.068Z,5.86
2022-12-24T10:30:32.281Z,5.57
2022-12-24T10:31:35.373Z,5.43
2022-12-24T10:32:38.513Z,6.67
2022-12-24T10:33:41.595Z,5.00
2022-12-24T10:34:44.591Z,5.00
2022-12-24T10:35:47.508Z,5.29
2022-12-24T10:36:50.630Z,5.67
2022-12-24T10:37:53.613Z,5.33
2022-12-24T10:38:56.785Z,6.00
2022-12-24T10:39:59.963Z,5.86
2022-12-24T10:41:03.372Z,5.14
2022-12-24T10:42:06.531Z,6.00
2022-12-24T10:43:09.625Z,5.57
2022-12-24T10:44:12.889Z,5.43
2022-12-24T10:45:16.071Z,5.86
2022-12-24T10:46:19.226Z,5.29
2022-12-24T10:47:22.356Z,5.43
2022-12-24T10:48:25.440Z,6.00
2022-12-24T10:49:28.396Z,6.00
2022-12-24T10:50:31.586Z,5.57
2022-12-24T10:51:34.773Z,5.29
2022-12-24T10:52:37.946Z,5.43
2022-12-24T10:53:41.121Z,6.00
2022-12-24T10:54:44.411Z,5.71
2022-12-24T10:55:47.606Z,5.86
2022-12-24T10:56:50.569Z,5.57
2022-12-24T10:57:53.745Z,5.33
2022-12-24T10:58:56.838Z,5.50
2022-12-24T10:59:59.815Z,6.00
2022-12-24T11:01:03.398Z,5.14
2022-12-24T11:02:06.648Z,4.87
2022-12-24T11:03:09.887Z,6.00
2022-12-24T11:04:12.948Z,5.17
2022-12-24T11:05:16.124Z,5.00
2022-12-24T11:06:19.494Z,4.43
2022-12-24T11:07:22.643Z,4.71
2022-12-24T11:08:25.563Z,4.86
2022-12-24T11:09:28.552Z,5.71
2022-12-24T11:10:31.641Z,5.00
2022-12-24T11:11:34.803Z,5.33
2022-12-24T11:12:37.985Z,5.33
2022-12-24T11:13:41.209Z,5.71
2022-12-24T11:14:47.455Z,5.57
2022-12-24T11:15:50.425Z,6.37
2022-12-24T11:16:53.685Z,6.33
2022-12-24T11:17:56.756Z,6.00
2022-12-24T11:18:59.850Z,6.33
2022-12-24T11:20:03.337Z,6.57
2022-12-24T11:21:06.908Z,5.86
2022-12-24T11:22:10.316Z,7.00
2022-12-24T11:23:13.586Z,6.43
2022-12-24T11:24:16.672Z,7.00
2022-12-24T11:25:19.654Z,6.86
2022-12-24T11:26:22.928Z,8.00
2022-12-24T11:27:25.918Z,7.33
2022-12-24T11:28:29.032Z,7.33
2022-12-24T11:29:32.082Z,7.57
2022-12-24T11:30:35.253Z,7.00
2022-12-24T11:31:38.420Z,6.50
2022-12-24T11:32:41.706Z,6.86
2022-12-24T11:33:44.691Z,7.57
2022-12-24T11:34:47.870Z,8.14
2022-12-24T11:35:50.850Z,8.50
2022-12-24T11:36:57.118Z,8.00
2022-12-24T11:38:00.434Z,8.00
2022-12-24T11:39:03.886Z,7.57
2022-12-24T11:40:07.073Z,7.71
2022-12-24T11:41:10.357Z,8.14
2022-12-24T11:42:13.636Z,8.43
2022-12-24T11:43:16.927Z,9.57
2022-12-24T11:44:20.298Z,8.57
2022-12-24T11:45:23.595Z,7.57
2022-12-24T11:46:26.830Z,7.43
2022-12-24T11:47:30.065Z,8.00
2022-12-24T11:48:33.451Z,7.86
2022-12-24T11:49:36.836Z,8.43
2022-12-24T11:50:40.211Z,9.43
2022-12-24T11:51:43.658Z,9.57
2022-12-24T11:52:46.780Z,7.71
2022-12-24T11:53:49.972Z,8.71
2022-12-24T11:54:53.252Z,8.57
2022-12-24T11:55:56.431Z,8.29
2022-12-24T11:56:59.828Z,8.43
2022-12-24T11:58:03.022Z,9.43
2022-12-24T11:59:06.393Z,9.57
2022-12-24T12:00:09.901Z,9.71
2022-12-24T12:01:15.841Z,8.71
2022-12-24T12:02:17.144Z,8.00
2022-12-24T12:03:20.328Z,7.67
2022-12-24T12:04:23.477Z,7.83
2022-12-24T12:05:26.600Z,8.00
2022-12-24T12:06:29.810Z,8.14
2022-12-24T12:07:32.669Z,9.43
2022-12-24T12:08:35.754Z,9.57
2022-12-24T12:09:38.711Z,10.00
2022-12-24T12:10:41.791Z,9.14
2022-12-24T12:11:44.890Z,8.71
2022-12-24T12:12:48.173Z,10.00
2022-12-24T12:13:51.448Z,9.57
2022-12-24T12:14:54.640Z,8.57
2022-12-24T12:15:57.955Z,9.00
2022-12-24T12:17:01.208Z,8.43
2022-12-24T12:18:04.481Z,8.43
2022-12-24T12:19:14.635Z,8.14
2022-12-24T12:20:12.273Z,8.00
2022-12-24T12:21:15.656Z,8.29
2022-12-24T12:22:22.095Z,9.00
2022-12-24T12:23:25.308Z,8.88
2022-12-24T12:24:32.113Z,8.14
2022-12-24T12:25:33.095Z,8.63
2022-12-24T12:26:36.491Z,9.33
2022-12-24T12:27:39.662Z,9.67
2022-12-24T12:28:43.047Z,10.00
2022-12-24T12:29:46.232Z,10.00
2022-12-24T12:30:49.525Z,10.00
2022-12-24T12:31:52.877Z,10.00
2022-12-24T12:32:56.138Z,9.86
2022-12-24T12:33:59.468Z,10.29
2022-12-24T12:35:02.802Z,11.57
2022-12-24T12:36:06.137Z,10.33
2022-12-24T12:37:14.408Z,10.71
2022-12-24T12:38:14.267Z,10.63
2022-12-24T12:39:17.535Z,10.71
2022-12-24T12:40:21.132Z,10.00
2022-12-24T12:41:24.524Z,11.86
2022-12-24T12:42:27.791Z,11.71
2022-12-24T12:43:30.989Z,12.86
2022-12-24T12:44:34.570Z,12.43
2022-12-24T12:45:38.192Z,10.86
2022-12-24T12:46:41.485Z,10.43
2022-12-24T12:47:44.641Z,11.00
2022-12-24T12:48:47.923Z,11.00
2022-12-24T12:49:51.120Z,10.14
2022-12-24T12:50:54.595Z,10.43
2022-12-24T12:51:58.323Z,10.43
2022-12-24T12:53:01.659Z,10.71
2022-12-24T12:54:04.926Z,10.86
2022-12-24T12:55:08.333Z,11.43
2022-12-24T12:56:11.837Z,11.00
2022-12-24T12:57:15.492Z,10.57
2022-12-24T12:58:19.291Z,11.29
2022-12-24T12:59:22.805Z,10.71
2022-12-24T13:00:26.131Z,10.71
2022-12-24T13:01:32.892Z,10.50
2022-12-24T13:02:34.588Z,11.00
2022-12-24T13:03:38.253Z,11.63
2022-12-24T13:04:41.559Z,12.14
2022-12-24T13:05:45.249Z,11.00
2022-12-24T13:06:48.445Z,11.57
2022-12-24T13:07:52.357Z,12.00
2022-12-24T13:08:55.616Z,11.50
2022-12-24T13:09:59.001Z,11.57
2022-12-24T13:11:02.151Z,12.86
2022-12-24T13:12:05.471Z,13.86
2022-12-24T13:13:08.755Z,13.29
2022-12-24T13:14:12.038Z,14.43
2022-12-24T13:15:15.322Z,15.00
2022-12-24T13:16:18.687Z,14.57
2022-12-24T13:17:21.988Z,14.29
2022-12-24T13:18:25.383Z,14.71
2022-12-24T13:19:32.871Z,14.43
2022-12-24T13:20:33.389Z,15.00
2022-12-24T13:21:36.541Z,16.43
2022-12-24T13:22:40.214Z,16.67
2022-12-24T13:23:43.647Z,15.43
2022-12-24T13:24:51.531Z,15.38
2022-12-24T13:25:52.361Z,14.13
2022-12-24T13:26:55.733Z,14.86
2022-12-24T13:27:59.346Z,15.29
2022-12-24T13:29:03.134Z,14.14
2022-12-24T13:30:14.346Z,14.50
2022-12-24T13:31:17.909Z,14.13
2022-12-24T13:32:21.485Z,14.00
2022-12-24T13:33:24.879Z,14.25
2022-12-24T13:34:28.433Z,13.57
2022-12-24T13:35:37.179Z,13.57
2022-12-24T13:36:36.264Z,13.75
2022-12-24T13:37:39.755Z,14.71
2022-12-24T13:38:43.041Z,16.00
2022-12-24T13:39:46.327Z,15.33
2022-12-24T13:40:49.817Z,15.43
2022-12-24T13:41:53.187Z,15.71
2022-12-24T13:42:56.482Z,15.29
2022-12-24T13:43:59.767Z,14.57
2022-12-24T13:45:03.254Z,14.57
2022-12-24T13:46:06.779Z,13.43
2022-12-24T13:47:10.133Z,14.25
2022-12-24T13:48:13.520Z,14.43
2022-12-24T13:49:16.913Z,13.71
2022-12-24T13:50:20.085Z,13.57
2022-12-24T13:51:23.372Z,13.71
2022-12-24T13:52:26.757Z,13.29
2022-12-24T13:53:30.248Z,12.86
2022-12-24T13:54:33.640Z,12.67
2022-12-24T13:55:36.927Z,12.57
2022-12-24T13:56:40.052Z,13.14
2022-12-24T13:57:43.266Z,13.00
2022-12-24T13:58:46.571Z,13.00
2022-12-24T13:59:49.751Z,12.86
2022-12-24T14:00:53.208Z,13.43
2022-12-24T14:01:56.678Z,13.00
2022-12-24T14:03:00.231Z,13.00
2022-12-24T14:04:03.607Z,13.43
2022-12-24T14:05:06.893Z,13.57
2022-12-24T14:06:10.176Z,13.00
2022-12-24T14:07:13.460Z,13.57
2022-12-24T14:08:16.737Z,13.00